createdAt,value
2019-01-02T00:01:20.661Z,3.50
2019-01-02T00:04:02.498Z,3.93
2019-01-02T00:09:47.674Z,4.00
2019-01-02T00:12:31.058Z,3.90
2019-01-02T00:15:15.439Z,4.73
2019-01-02T00:17:57.012Z,4.53
2019-01-02T00:20:38.867Z,4.77
2019-01-02T00:26:03.646Z,3.93
2019-01-02T00:28:45.258Z,4.00
2019-01-02T00:31:26.898Z,4.23
2019-01-02T00:34:08.602Z,5.47
2019-01-02T00:36:50.328Z,3.83
2019-01-02T00:42:16.181Z,3.67
2019-01-02T00:44:57.322Z,4.10
2019-01-02T00:47:39.017Z,3.33
2019-01-02T00:50:21.632Z,3.60
2019-01-02T00:53:04.519Z,4.10
2019-01-02T00:55:47.041Z,3.70
2019-01-02T00:58:32.633Z,3.10
2019-01-02T01:04:02.099Z,4.43
2019-01-02T01:06:32.168Z,4.13
2019-01-02T01:09:22.590Z,3.97
2019-01-02T01:12:04.202Z,3.57
2019-01-02T01:14:45.396Z,4.07
2019-01-02T01:17:27.478Z,3.87
2019-01-02T01:20:08.594Z,3.87
2019-01-02T01:22:49.845Z,4.00
2019-01-02T01:25:31.890Z,3.17
2019-01-02T01:28:13.115Z,3.03
2019-01-02T01:30:55.176Z,3.67
2019-01-02T01:36:21.441Z,3.17
2019-01-02T01:39:04.296Z,3.30
2019-01-02T01:41:48.307Z,3.80
2019-01-02T01:44:30.223Z,3.17
2019-01-02T01:47:14.228Z,3.53
2019-01-02T01:52:43.750Z,3.30
2019-01-02T01:55:25.103Z,3.30
2019-01-02T01:58:06.932Z,3.73
2019-01-02T02:00:48.598Z,2.83
2019-01-02T02:03:30.135Z,3.40
2019-01-02T02:06:10.895Z,3.43
2019-01-02T02:08:52.796Z,3.47
2019-01-02T02:11:34.050Z,3.27
2019-01-02T02:14:15.331Z,3.33
2019-01-02T02:16:55.589Z,3.07
2019-01-02T02:19:37.152Z,3.77
2019-01-02T02:22:19.670Z,4.13
2019-01-02T02:25:00.851Z,3.10
2019-01-02T02:27:43.474Z,3.50
2019-01-02T02:30:25.356Z,2.67
2019-01-02T02:33:07.115Z,3.47
2019-01-02T02:35:48.669Z,4.00
2019-01-02T02:41:11.893Z,3.37
2019-01-02T02:43:53.636Z,3.60
2019-01-02T02:49:18.774Z,3.33
2019-01-02T02:51:59.456Z,3.53
2019-01-02T02:54:40.954Z,3.30
2019-01-02T02:57:22.715Z,3.00
2019-01-02T03:00:04.490Z,2.70
2019-01-02T03:02:46.004Z,2.93
2019-01-02T03:05:27.259Z,3.17
2019-01-02T03:08:08.045Z,3.23
2019-01-02T03:10:49.955Z,2.50
2019-01-02T03:13:19.723Z,3.03
2019-01-02T03:16:10.179Z,3.17
2019-01-02T03:21:36.692Z,2.87
2019-01-02T03:24:18.391Z,3.00
2019-01-02T03:26:59.887Z,2.60
2019-01-02T03:29:41.272Z,2.73
2019-01-02T03:35:30.189Z,2.70
2019-01-02T03:40:55.702Z,2.60
2019-01-02T03:43:37.770Z,2.97
2019-01-02T03:46:19.830Z,4.03
2019-01-02T03:49:01.242Z,2.53
2019-01-02T03:51:42.905Z,2.63
2019-01-02T03:57:07.822Z,2.80
2019-01-02T03:59:37.790Z,2.63
2019-01-02T04:02:27.035Z,2.97
2019-01-02T04:05:17.101Z,2.87
2019-01-02T04:10:46.126Z,3.23
2019-01-02T04:13:27.421Z,3.63
2019-01-02T04:16:09.649Z,3.27
2019-01-02T04:18:51.132Z,3.17
2019-01-02T04:21:32.981Z,3.07
2019-01-02T04:24:14.002Z,2.70
2019-01-02T04:26:54.955Z,2.80
2019-01-02T04:29:36.215Z,2.53
2019-01-02T04:32:17.874Z,2.40
2019-01-02T04:37:42.226Z,3.10
2019-01-02T04:40:24.023Z,3.03
2019-01-02T04:43:05.354Z,3.37
2019-01-02T04:45:46.816Z,2.57
2019-01-02T04:48:28.268Z,2.40
2019-01-02T04:51:09.551Z,2.50
2019-01-02T04:53:50.482Z,2.10
2019-01-02T04:56:31.519Z,2.23
2019-01-02T04:59:13.135Z,2.73
2019-01-02T05:01:53.815Z,2.40
2019-01-02T05:04:34.903Z,2.67
2019-01-02T05:07:16.483Z,2.30
2019-01-02T05:09:57.511Z,2.73
2019-01-02T05:15:21.246Z,2.57
2019-01-02T05:17:50.662Z,3.80
2019-01-02T05:20:39.274Z,3.03
2019-01-02T05:23:27.903Z,3.03
2019-01-02T05:26:09.774Z,2.90
2019-01-02T05:28:51.252Z,4.13
2019-01-02T05:31:32.538Z,3.00
2019-01-02T05:34:14.039Z,2.77
2019-01-02T05:36:55.606Z,2.83
2019-01-02T05:39:36.700Z,3.30
2019-01-02T05:42:18.420Z,3.20
2019-01-02T05:44:59.743Z,3.00
2019-01-02T05:47:41.315Z,3.37
2019-01-02T05:50:22.891Z,3.70
2019-01-02T05:53:03.800Z,3.57
2019-01-02T05:55:46.333Z,3.70
2019-01-02T05:58:27.797Z,3.33
2019-01-02T06:01:10.178Z,3.23
2019-01-02T06:03:51.039Z,3.23
2019-01-02T06:06:32.622Z,2.93
2019-01-02T06:09:14.433Z,3.40
2019-01-02T06:14:26.712Z,3.73
2019-01-02T06:17:15.242Z,3.93
2019-01-02T06:19:56.471Z,3.80
2019-01-02T06:22:37.826Z,3.83
2019-01-02T06:25:17.871Z,3.40
2019-01-02T06:27:59.210Z,3.10
2019-01-02T06:30:40.803Z,3.73
2019-01-02T06:33:22.132Z,3.43
2019-01-02T06:36:03.614Z,3.73
2019-01-02T06:38:45.009Z,3.77
2019-01-02T06:41:26.409Z,4.73
2019-01-02T06:44:09.403Z,3.20
2019-01-02T06:46:50.692Z,3.73
2019-01-02T06:49:32.454Z,3.43
2019-01-02T06:52:13.362Z,3.70
2019-01-02T06:54:55.137Z,3.53
2019-01-02T06:57:36.230Z,2.90
2019-01-02T07:00:17.818Z,3.80
2019-01-02T07:02:58.627Z,3.53
2019-01-02T07:05:39.399Z,3.83
2019-01-02T07:08:21.307Z,3.07
2019-01-02T07:11:02.637Z,3.30
2019-01-02T07:16:32.504Z,3.20
2019-01-02T07:21:57.873Z,3.50
2019-01-02T07:24:38.977Z,3.73
2019-01-02T07:27:26.219Z,3.03
2019-01-02T07:30:08.092Z,3.47
2019-01-02T07:32:52.192Z,4.70
2019-01-02T07:35:34.355Z,2.93
2019-01-02T07:38:16.885Z,2.97
2019-01-02T07:40:57.995Z,2.93
2019-01-02T07:43:40.114Z,3.10
2019-01-02T07:46:22.074Z,2.87
2019-01-02T07:51:49.516Z,3.23
2019-01-02T07:54:30.462Z,2.73
2019-01-02T07:57:15.198Z,2.77
2019-01-02T07:59:56.749Z,2.60
2019-01-02T08:02:42.542Z,3.00
2019-01-02T08:05:43.645Z,2.70
2019-01-02T08:08:27.012Z,3.50
2019-01-02T08:11:08.604Z,2.70
2019-01-02T08:13:50.114Z,3.00
2019-01-02T08:16:31.660Z,2.73
2019-01-02T08:19:14.213Z,3.10
2019-01-02T08:21:56.245Z,3.07
2019-01-02T08:27:16.751Z,3.03
2019-01-02T08:32:47.403Z,2.83
2019-01-02T08:35:28.655Z,2.90
2019-01-02T08:38:10.364Z,2.83
2019-01-02T08:40:51.755Z,2.97
2019-01-02T08:43:33.375Z,2.83
2019-01-02T08:46:15.131Z,3.57
2019-01-02T08:48:56.495Z,2.73
2019-01-02T08:51:36.267Z,2.90
2019-01-02T08:54:17.718Z,3.17
2019-01-02T08:57:25.416Z,2.80
2019-01-02T09:00:33.334Z,3.70
2019-01-02T09:03:14.558Z,3.33
2019-01-02T09:05:55.975Z,3.57
2019-01-02T09:08:37.881Z,3.67
2019-01-02T09:14:07.584Z,2.90
2019-01-02T09:19:33.191Z,3.30
2019-01-02T09:22:15.054Z,2.73
2019-01-02T09:24:56.473Z,3.10
2019-01-02T09:27:38.109Z,3.10
2019-01-02T09:30:20.421Z,2.80
2019-01-02T09:35:50.014Z,4.30
2019-01-02T09:38:32.370Z,3.53
2019-01-02T09:41:14.240Z,3.70
2019-01-02T09:43:58.123Z,3.13
2019-01-02T09:46:39.744Z,3.70
2019-01-02T09:49:22.316Z,2.80
2019-01-02T09:52:03.742Z,2.07
2019-01-02T09:54:45.237Z,4.20
2019-01-02T09:57:26.749Z,2.27
2019-01-02T10:02:52.971Z,3.50
2019-01-02T10:08:26.865Z,2.97
2019-01-02T10:11:34.446Z,2.63
2019-01-02T10:14:42.554Z,3.10
2019-01-02T10:17:52.503Z,3.87
2019-01-02T10:20:33.751Z,2.90
2019-01-02T10:23:13.479Z,3.43
2019-01-02T10:25:55.531Z,3.23
2019-01-02T10:28:38.459Z,3.43
2019-01-02T10:31:22.425Z,3.10
2019-01-02T10:36:48.275Z,2.97
2019-01-02T10:39:29.745Z,3.40
2019-01-02T10:42:11.762Z,3.27
2019-01-02T10:44:53.247Z,3.33
2019-01-02T10:47:37.777Z,3.07
2019-01-02T10:50:20.217Z,3.10
2019-01-02T10:53:01.665Z,5.67
2019-01-02T10:55:43.007Z,20.83
2019-01-02T10:58:27.395Z,6.03
2019-01-02T11:03:59.796Z,3.10
2019-01-02T11:06:41.023Z,3.60
2019-01-02T11:12:09.295Z,2.77
2019-01-02T11:14:50.617Z,2.67
2019-01-02T11:18:13.462Z,2.70
2019-01-02T11:20:52.820Z,2.40
2019-01-02T11:23:34.934Z,2.97
2019-01-02T11:26:16.350Z,2.47
2019-01-02T11:29:01.933Z,2.73
2019-01-02T11:31:43.214Z,3.10
2019-01-02T11:34:27.610Z,2.77
2019-01-02T11:43:22.528Z,2.73
2019-01-02T11:46:11.120Z,3.20
2019-01-02T11:54:17.209Z,3.20
2019-01-02T11:56:46.813Z,2.83
2019-01-02T12:02:34.209Z,3.03
2019-01-02T12:05:12.992Z,3.10
2019-01-02T12:07:54.412Z,3.10
2019-01-02T12:10:36.737Z,2.50
2019-01-02T12:13:18.478Z,2.67
2019-01-02T12:15:59.810Z,3.07
2019-01-02T12:18:29.244Z,2.67
2019-01-02T12:21:17.746Z,2.93
2019-01-02T12:24:08.506Z,2.77
2019-01-02T12:26:49.854Z,2.63
2019-01-02T12:29:31.431Z,2.87
2019-01-02T12:32:12.499Z,2.73
2019-01-02T12:34:53.590Z,2.80
2019-01-02T12:37:35.442Z,2.70
2019-01-02T12:40:17.083Z,2.80
2019-01-02T12:42:59.527Z,2.70
2019-01-02T12:45:41.068Z,3.07
2019-01-02T12:48:24.742Z,3.10
2019-01-02T12:51:05.934Z,3.57
2019-01-02T12:53:49.582Z,3.50
2019-01-02T12:59:20.959Z,2.77
2019-01-02T13:02:02.561Z,2.90
2019-01-02T13:04:43.801Z,2.67
2019-01-02T13:07:25.780Z,2.90
2019-01-02T13:10:07.224Z,2.87
2019-01-02T13:12:48.925Z,2.80
2019-01-02T13:15:30.259Z,2.70
2019-01-02T13:18:14.190Z,3.00
2019-01-02T13:20:55.750Z,3.37
2019-01-02T13:23:39.099Z,3.63
2019-01-02T13:29:12.171Z,3.70
2019-01-02T13:31:53.850Z,4.60
2019-01-02T13:34:38.006Z,5.10
2019-01-02T13:37:19.621Z,5.33
2019-01-02T13:40:03.817Z,4.00
2019-01-02T13:42:45.851Z,4.10
2019-01-02T13:45:29.930Z,3.67
2019-01-02T13:48:13.581Z,3.90
2019-01-02T13:50:58.155Z,3.27
2019-01-02T13:53:39.773Z,4.17
2019-01-02T13:56:22.730Z,3.60
2019-01-02T14:01:51.013Z,4.10
2019-01-02T14:04:34.542Z,3.57
2019-01-02T14:07:16.190Z,4.07
2019-01-02T14:09:58.244Z,4.30
2019-01-02T14:12:41.814Z,3.93
2019-01-02T14:18:04.858Z,3.67
2019-01-02T14:23:32.321Z,4.23
2019-01-02T14:31:59.477Z,5.37
2019-01-02T14:34:40.826Z,4.17
2019-01-02T14:40:44.335Z,5.07
2019-01-02T14:45:58.457Z,7.07
2019-01-02T14:48:47.099Z,7.80
2019-01-02T14:54:02.624Z,4.33
2019-01-02T14:56:51.422Z,3.63
2019-01-02T14:59:33.048Z,4.17
2019-01-02T15:02:14.517Z,4.57
2019-01-02T15:04:55.909Z,4.00
2019-01-02T15:07:35.810Z,4.07
2019-01-02T15:10:17.007Z,5.50
2019-01-02T15:12:58.621Z,4.07
2019-01-02T15:18:32.956Z,4.17
2019-01-02T15:21:14.521Z,5.27
2019-01-02T15:23:56.339Z,12.83
2019-01-02T15:26:37.502Z,10.23
2019-01-02T15:32:04.704Z,4.70
2019-01-02T15:34:47.229Z,3.80
2019-01-02T15:37:28.071Z,4.03
2019-01-02T15:40:09.754Z,3.93
2019-01-02T15:42:51.674Z,4.30
2019-01-02T15:45:32.998Z,3.43
2019-01-02T15:48:13.926Z,3.80
2019-01-02T15:50:43.902Z,3.07
2019-01-02T15:53:14.654Z,3.43
2019-01-02T15:56:03.449Z,3.60
2019-01-02T15:58:52.161Z,3.50
2019-01-02T16:01:33.780Z,4.00
2019-01-02T16:04:15.929Z,4.93
2019-01-02T16:06:57.185Z,3.90
2019-01-02T16:09:39.429Z,4.90
2019-01-02T16:12:20.919Z,4.10
2019-01-02T16:15:02.215Z,4.97
2019-01-02T16:17:43.762Z,4.87
2019-01-02T16:23:09.746Z,5.43
2019-01-02T16:25:51.061Z,5.50
2019-01-02T16:28:33.320Z,5.03
2019-01-02T16:31:15.198Z,5.87
2019-01-02T16:33:58.644Z,6.50
2019-01-02T16:36:40.260Z,4.77
2019-01-02T16:39:21.269Z,6.47
2019-01-02T16:42:02.994Z,5.20
2019-01-02T16:44:44.254Z,5.70
2019-01-02T16:47:26.078Z,5.23
2019-01-02T16:50:07.793Z,6.33
2019-01-02T16:52:48.998Z,6.37
2019-01-02T16:55:18.593Z,6.00
2019-01-02T16:58:07.825Z,6.97
2019-01-02T17:00:48.977Z,6.37
2019-01-02T17:06:03.623Z,6.13
2019-01-02T17:08:52.222Z,6.70
2019-01-02T17:11:33.482Z,7.27
2019-01-02T17:14:14.913Z,6.67
2019-01-02T17:16:56.131Z,6.97
2019-01-02T17:19:41.285Z,5.93
2019-01-02T17:22:22.530Z,6.00
2019-01-02T17:25:03.883Z,5.63
2019-01-02T17:27:45.465Z,6.17
2019-01-02T17:33:11.102Z,5.50
2019-01-02T17:35:52.365Z,6.37
2019-01-02T17:38:34.686Z,5.77
2019-01-02T17:41:16.331Z,6.87
2019-01-02T17:43:58.433Z,5.87
2019-01-02T17:46:39.967Z,5.17
2019-01-02T17:52:23.709Z,5.37
2019-01-02T17:55:05.775Z,5.23
2019-01-02T17:57:48.467Z,6.90
2019-01-02T18:00:30.035Z,6.07
2019-01-02T18:05:55.884Z,6.47
2019-01-02T18:08:44.775Z,6.80
2019-01-02T18:11:28.895Z,7.07
2019-01-02T18:14:10.795Z,6.93
2019-01-02T18:16:52.216Z,7.07
2019-01-02T18:19:33.568Z,5.80
2019-01-02T18:22:15.176Z,6.23
2019-01-02T18:24:56.791Z,8.30
2019-01-02T18:27:37.918Z,6.40
2019-01-02T18:30:18.910Z,6.43
2019-01-02T18:32:59.559Z,6.57
2019-01-02T18:35:41.438Z,6.70
2019-01-02T18:38:22.614Z,6.80
2019-01-02T18:41:04.098Z,6.47
2019-01-02T18:43:46.037Z,6.20
2019-01-02T18:46:15.418Z,6.63
2019-01-02T18:49:04.018Z,6.47
2019-01-02T18:51:45.568Z,5.80
2019-01-02T18:54:26.965Z,6.30
2019-01-02T18:57:08.921Z,6.70
2019-01-02T18:59:51.525Z,7.87
2019-01-02T19:05:22.108Z,8.40
2019-01-02T19:08:05.050Z,7.93
2019-01-02T19:10:46.688Z,8.57
2019-01-02T19:13:28.015Z,7.63
2019-01-02T19:16:09.245Z,10.10
2019-01-02T19:18:50.152Z,10.17
2019-01-02T19:21:32.597Z,10.47
2019-01-02T19:26:59.330Z,9.13
2019-01-02T19:29:40.583Z,10.03
2019-01-02T19:32:22.737Z,9.00
2019-01-02T19:35:05.873Z,9.17
2019-01-02T19:37:48.375Z,8.30
2019-01-02T19:40:31.334Z,8.50
2019-01-02T19:43:15.797Z,9.40
2019-01-02T19:45:59.106Z,8.20
2019-01-02T19:48:42.010Z,8.77
2019-01-02T19:51:26.891Z,8.53
2019-01-02T19:54:11.306Z,9.37
2019-01-02T19:56:54.750Z,9.63
2019-01-02T19:59:38.006Z,8.70
2019-01-02T20:02:21.861Z,9.80
2019-01-02T20:05:07.401Z,9.10
2019-01-02T20:07:50.971Z,10.03
2019-01-02T20:10:33.850Z,9.80
2019-01-02T20:13:17.253Z,8.70
2019-01-02T20:16:00.097Z,11.47
2019-01-02T20:18:43.553Z,8.87
2019-01-02T20:21:27.576Z,9.23
2019-01-02T20:24:12.132Z,8.70
2019-01-02T20:26:55.644Z,8.70
2019-01-02T20:29:39.509Z,8.53
2019-01-02T20:32:20.518Z,9.23
2019-01-02T20:35:03.770Z,8.87
2019-01-02T20:37:46.785Z,7.73
2019-01-02T20:40:30.711Z,8.50
2019-01-02T20:43:14.230Z,8.53
2019-01-02T20:45:58.738Z,8.00
2019-01-02T20:48:43.382Z,9.40
2019-01-02T20:51:27.537Z,8.83
2019-01-02T20:54:11.882Z,10.73
2019-01-02T20:56:55.252Z,10.07
2019-01-02T20:59:37.884Z,8.37
2019-01-02T21:02:20.332Z,9.10
2019-01-02T21:05:04.513Z,9.97
2019-01-02T21:07:48.974Z,9.70
2019-01-02T21:10:32.081Z,9.10
2019-01-02T21:13:16.015Z,8.20
2019-01-02T21:16:01.285Z,8.93
2019-01-02T21:18:44.494Z,8.73
2019-01-02T21:21:28.410Z,9.50
2019-01-02T21:24:10.349Z,8.93
2019-01-02T21:26:51.871Z,9.50
2019-01-02T21:29:33.536Z,11.53
2019-01-02T21:32:15.461Z,9.90
2019-01-02T21:34:57.055Z,9.37
2019-01-02T21:37:39.493Z,8.87
2019-01-02T21:40:21.130Z,9.37
2019-01-02T21:43:02.568Z,8.33
2019-01-02T21:45:44.315Z,8.40
2019-01-02T21:48:26.390Z,7.87
2019-01-02T21:50:55.909Z,7.13
2019-01-02T21:53:46.120Z,7.13
2019-01-02T21:56:27.275Z,7.63
2019-01-02T21:58:57.362Z,7.37
2019-01-02T22:01:46.318Z,6.83
2019-01-02T22:04:35.116Z,7.63
2019-01-02T22:07:16.341Z,6.60
2019-01-02T22:10:03.441Z,6.07
2019-01-02T22:15:39.459Z,8.10
2019-01-02T22:18:21.293Z,7.70
2019-01-02T22:21:02.442Z,6.87
2019-01-02T22:23:44.165Z,7.30
2019-01-02T22:26:25.693Z,7.10
2019-01-02T22:29:08.197Z,6.17
2019-01-02T22:31:48.982Z,6.47
2019-01-02T22:34:30.670Z,5.43
2019-01-02T22:37:11.788Z,5.67
2019-01-02T22:39:53.629Z,6.07
2019-01-02T22:42:35.180Z,6.60
2019-01-02T22:45:16.735Z,6.70
2019-01-02T22:47:46.172Z,5.83
2019-01-02T22:50:34.645Z,6.03
2019-01-02T22:53:16.190Z,6.27
2019-01-02T22:55:59.367Z,6.30
2019-01-02T22:58:28.930Z,6.43
2019-01-02T23:01:23.654Z,7.20
2019-01-02T23:04:19.293Z,6.30
2019-01-02T23:07:22.360Z,5.43
2019-01-02T23:10:22.673Z,5.23
2019-01-02T23:16:23.584Z,5.77
2019-01-02T23:19:11.927Z,5.50
2019-01-02T23:22:19.447Z,6.30
2019-01-02T23:25:25.036Z,5.30
2019-01-02T23:28:09.466Z,5.90
2019-01-02T23:31:04.778Z,6.27
2019-01-02T23:34:08.012Z,6.33
2019-01-02T23:39:46.620Z,7.70
2019-01-02T23:45:33.087Z,6.30
2019-01-02T23:51:36.799Z,7.13
2019-01-02T23:54:37.026Z,7.47
2019-01-02T23:57:37.208Z,7.70
